Time;durP1;ratioP1;P1;durP2;ratioP2;P2;SDS_P1;SDS_P2;PMS_P1;PMS_P2;Temp;Humidity;BMP_temperature;BMP_pressure;BME280_temperature;BME280_humidity;BME280_pressure;Samples;Min_cycle;Max_cycle;Signal;HPM_P1;HPM_P2
2022/06/13 00:01:12;;;;;;;9.00;5.40;;;15.20;92.30;;;;;;5140099;27;20460;-80
2022/06/13 00:03:41;;;;;;;9.77;5.10;;;15.20;92.40;;;;;;5141872;27;20421;-82
2022/06/13 00:06:09;;;;;;;8.93;5.00;;;15.20;92.40;;;;;;5124004;27;20437;-81
2022/06/13 00:08:37;;;;;;;10.57;5.00;;;15.20;92.50;;;;;;5122904;27;20516;-81
2022/06/13 00:11:11;;;;;;;10.23;5.50;;;15.10;92.50;;;;;;5140875;27;20485;-81
2022/06/13 00:13:41;;;;;;;11.50;5.67;;;15.10;92.60;;;;;;5121756;27;20529;-81
2022/06/13 00:16:10;;;;;;;7.87;4.97;;;15.10;92.60;;;;;;5140047;27;20462;-81
2022/06/13 00:18:39;;;;;;;15.43;6.40;;;15.10;92.70;;;;;;5121135;27;20819;-81
2022/06/13 00:21:07;;;;;;;8.57;4.57;;;15.10;92.80;;;;;;5121416;27;20552;-82
2022/06/13 00:23:37;;;;;;;8.30;5.13;;;15.00;92.80;;;;;;5139952;27;20518;-81
2022/06/13 00:26:06;;;;;;;7.60;5.10;;;15.00;92.80;;;;;;5121006;27;20501;-80
2022/06/13 00:28:35;;;;;;;7.00;4.97;;;15.00;92.90;;;;;;5120795;27;20474;-81
2022/06/13 00:31:03;;;;;;;6.07;4.77;;;14.90;92.90;;;;;;5138873;27;20456;-81
2022/06/13 00:33:31;;;;;;;9.23;4.93;;;14.90;93.00;;;;;;5120344;27;20450;-81
2022/06/13 00:36:00;;;;;;;8.23;5.10;;;14.90;93.00;;;;;;5120032;27;21006;-81
2022/06/13 00:38:28;;;;;;;8.57;4.90;;;14.90;93.10;;;;;;5120060;27;20437;-81
2022/06/13 00:40:56;;;;;;;7.20;4.60;;;14.90;93.10;;;;;;5119866;27;20413;-81
2022/06/13 00:43:25;;;;;;;9.50;5.90;;;14.90;93.20;;;;;;5119607;27;20489;-81
2022/06/13 00:45:54;;;;;;;6.90;4.77;;;14.80;93.10;;;;;;5119639;27;20436;-81
2022/06/13 00:48:28;;;;;;;7.90;5.17;;;14.80;93.20;;;;;;5119703;27;20866;-80
2022/06/13 00:51:00;;;;;;;6.63;4.60;;;14.80;93.30;;;;;;5119719;27;20950;-80
2022/06/13 00:53:31;;;;;;;10.57;5.17;;;14.80;93.40;;;;;;5119712;27;20451;-80
2022/06/13 00:56:02;;;;;;;13.33;5.67;;;14.80;93.40;;;;;;5138069;27;20993;-79
2022/06/13 00:58:40;;;;;;;10.60;5.63;;;14.70;93.50;;;;;;5119472;27;20455;-81
2022/06/13 01:01:08;;;;;;;11.20;5.47;;;14.70;93.50;;;;;;5119883;27;20446;-79
2022/06/13 01:03:37;;;;;;;10.50;5.50;;;14.70;93.60;;;;;;5118125;27;20934;-80
2022/06/13 01:06:06;;;;;;;9.60;5.50;;;14.70;93.60;;;;;;5121936;27;20512;-80
2022/06/13 01:08:38;;;;;;;10.90;5.70;;;14.70;93.70;;;;;;5147942;27;20438;-80
2022/06/13 01:11:19;;;;;;;13.13;5.77;;;14.70;93.80;;;;;;5128249;27;20526;-81
2022/06/13 01:14:18;;;;;;;11.10;5.87;;;14.60;93.80;;;;;;5132122;27;20494;-81
2022/06/13 01:17:03;;;;;;;10.13;5.77;;;14.60;93.90;;;;;;5132228;27;20463;-82
2022/06/13 01:19:58;;;;;;;11.60;5.40;;;14.60;93.90;;;;;;5130421;27;20430;-81
2022/06/13 01:22:54;;;;;;;9.70;5.40;;;14.60;94.00;;;;;;5130768;27;20943;-82
2022/06/13 01:25:42;;;;;;;10.43;5.50;;;14.50;94.00;;;;;;5130450;27;20491;-81
2022/06/13 01:28:26;;;;;;;8.70;5.50;;;14.50;94.00;;;;;;5136717;27;20430;-81
2022/06/13 01:31:13;;;;;;;8.53;4.90;;;14.50;94.10;;;;;;5140404;27;20454;-79
2022/06/13 01:33:52;;;;;;;9.80;5.20;;;14.50;94.10;;;;;;5121800;27;20982;-82
2022/06/13 01:36:37;;;;;;;8.07;5.53;;;14.40;94.10;;;;;;5121370;27;20491;-81
2022/06/13 01:39:28;;;;;;;11.30;5.30;;;14.40;94.40;;;;;;5126339;27;20461;-81
2022/06/13 01:42:06;;;;;;;12.27;5.83;;;14.40;94.20;;;;;;5123340;27;20431;-80
2022/06/13 01:44:45;;;;;;;9.20;6.00;;;14.30;94.20;;;;;;5124311;27;20431;-80
2022/06/13 01:47:24;;;;;;;11.97;6.33;;;14.30;94.30;;;;;;5122691;27;20442;-79
2022/06/13 01:50:00;;;;;;;11.50;7.00;;;14.30;94.30;;;;;;5137697;27;20509;-80
2022/06/13 01:52:37;;;;;;;10.83;5.80;;;14.30;94.40;;;;;;5120157;27;20927;-78
2022/06/13 01:55:14;;;;;;;8.60;6.90;;;14.20;94.40;;;;;;5119377;27;20462;-81
2022/06/13 01:57:47;;;;;;;11.83;6.23;;;14.20;94.50;;;;;;5118724;27;20458;-81
2022/06/13 02:00:21;;;;;;;7.70;6.10;;;14.20;94.60;;;;;;5118933;27;20443;-80
2022/06/13 02:02:57;;;;;;;9.10;6.67;;;14.20;94.70;;;;;;5118678;28;20442;-81
2022/06/13 02:05:32;;;;;;;12.00;7.33;;;14.20;94.80;;;;;;5118549;28;20548;-79
2022/06/13 02:08:07;;;;;;;10.73;6.70;;;14.20;94.90;;;;;;5118547;28;20533;-80
2022/06/13 02:10:53;;;;;;;11.33;6.93;;;14.20;95.00;;;;;;5118394;28;20441;-79
2022/06/13 02:13:28;;;;;;;8.70;6.30;;;14.20;95.00;;;;;;5118467;28;20442;-78
2022/06/13 02:16:01;;;;;;;7.60;6.40;;;14.20;95.10;;;;;;5118528;28;20462;-80
2022/06/13 02:18:34;;;;;;;9.80;6.60;;;14.10;95.10;;;;;;5136445;28;20461;-82
2022/06/13 02:21:07;;;;;;;9.40;7.57;;;14.10;95.20;;;;;;5118724;28;20969;-79
2022/06/13 02:23:40;;;;;;;16.27;8.20;;;14.10;95.30;;;;;;5118056;28;20529;-79
2022/06/13 02:26:12;;;;;;;14.13;7.50;;;14.10;95.40;;;;;;5117840;28;20561;-80
2022/06/13 02:28:44;;;;;;;8.93;6.77;;;14.10;95.50;;;;;;5118179;28;20525;-79
2022/06/13 02:31:17;;;;;;;11.70;7.13;;;14.10;95.60;;;;;;5118217;28;20525;-80
2022/06/13 02:33:52;;;;;;;15.20;8.27;;;14.10;95.70;;;;;;5117994;28;20529;-80
2022/06/13 02:36:28;;;;;;;13.73;8.27;;;14.10;95.80;;;;;;5117979;28;20830;-81
2022/06/13 02:39:01;;;;;;;14.90;8.07;;;14.10;95.90;;;;;;5117895;28;20435;-80
2022/06/13 02:41:36;;;;;;;16.30;8.87;;;14.00;96.00;;;;;;5119363;28;20526;-80
2022/06/13 02:44:09;;;;;;;10.37;7.53;;;14.00;96.40;;;;;;5137585;28;20422;-79
2022/06/13 02:46:43;;;;;;;14.40;8.17;;;14.00;96.30;;;;;;5136162;28;20507;-79
2022/06/13 02:49:19;;;;;;;10.47;8.60;;;14.00;96.40;;;;;;5118663;28;20438;-79
2022/06/13 02:51:58;;;;;;;13.60;7.23;;;14.00;96.60;;;;;;5118199;28;20434;-80
2022/06/13 02:54:33;;;;;;;11.47;7.90;;;14.00;96.60;;;;;;5117983;28;20487;-80
2022/06/13 02:57:27;;;;;;;11.17;7.93;;;14.00;96.80;;;;;;5117993;28;20561;-80
2022/06/13 03:00:14;;;;;;;10.33;7.63;;;14.00;96.90;;;;;;5118720;28;20462;-80
2022/06/13 03:02:50;;;;;;;15.53;8.40;;;14.00;97.00;;;;;;5118021;28;20462;-81
2022/06/13 03:05:46;;;;;;;16.47;8.27;;;13.90;97.10;;;;;;5136499;28;20821;-80
2022/06/13 03:08:33;;;;;;;11.63;8.07;;;14.00;97.30;;;;;;5117675;28;20465;-80
2022/06/13 03:11:07;;;;;;;12.53;8.17;;;13.90;97.30;;;;;;5136781;28;20466;-81
2022/06/13 03:13:47;;;;;;;18.07;8.17;;;13.90;97.50;;;;;;5118191;28;20437;-80
2022/06/13 03:16:24;;;;;;;12.83;7.80;;;13.90;97.60;;;;;;5117911;28;20553;-82
2022/06/13 03:18:57;;;;;;;10.90;8.70;;;13.90;97.70;;;;;;5117450;28;20529;-81
2022/06/13 03:21:32;;;;;;;14.80;8.83;;;14.00;97.90;;;;;;5117918;28;21049;-80
2022/06/13 03:24:10;;;;;;;10.37;8.03;;;14.00;98.00;;;;;;5117312;28;20449;-81
2022/06/13 03:26:44;;;;;;;13.07;8.23;;;14.00;98.10;;;;;;5118719;27;21026;-79
2022/06/13 03:29:17;;;;;;;14.80;9.10;;;14.00;98.20;;;;;;5121385;27;20434;-79
2022/06/13 03:31:49;;;;;;;10.93;8.73;;;14.00;98.30;;;;;;5121238;27;20439;-80
2022/06/13 03:34:22;;;;;;;12.70;8.83;;;14.10;98.50;;;;;;5140254;27;20418;-82
2022/06/13 03:36:58;;;;;;;9.80;8.13;;;14.10;98.50;;;;;;5121571;27;20465;-81
2022/06/13 03:39:32;;;;;;;12.50;8.57;;;14.10;98.60;;;;;;5121779;27;20553;-81
2022/06/13 03:42:10;;;;;;;11.93;9.00;;;14.10;98.70;;;;;;5141388;27;20846;-80
2022/06/13 03:44:44;;;;;;;16.50;8.43;;;14.10;98.80;;;;;;5122330;27;20537;-81
2022/06/13 03:47:18;;;;;;;14.90;8.83;;;14.10;98.80;;;;;;5141269;27;20418;-81
2022/06/13 03:49:51;;;;;;;14.90;9.47;;;14.10;98.90;;;;;;5122367;27;20437;-81
2022/06/13 03:52:21;;;;;;;13.63;8.40;;;14.10;99.00;;;;;;5121640;27;20939;-82
2022/06/13 03:54:55;;;;;;;13.57;8.33;;;14.10;99.00;;;;;;5121347;27;20933;-79
2022/06/13 03:57:28;;;;;;;12.13;8.50;;;14.10;99.10;;;;;;5122136;27;20439;-82
2022/06/13 04:00:04;;;;;;;14.10;8.80;;;14.10;99.20;;;;;;5121829;27;20474;-82
2022/06/13 04:02:35;;;;;;;9.90;7.87;;;14.20;99.30;;;;;;5139749;27;20815;-79
2022/06/13 04:05:04;;;;;;;12.33;9.23;;;14.10;99.30;;;;;;5141261;27;20871;-80
2022/06/13 04:07:38;;;;;;;12.90;8.80;;;14.20;99.40;;;;;;5123106;27;20442;-79
2022/06/13 04:10:10;;;;;;;10.93;8.23;;;14.20;99.40;;;;;;5141693;27;20454;-80
2022/06/13 04:12:56;;;;;;;10.30;7.93;;;14.20;99.40;;;;;;5141022;27;20469;-81
2022/06/13 04:15:57;;;;;;;11.40;7.60;;;14.30;99.60;;;;;;5141520;27;21013;-80
2022/06/13 04:18:40;;;;;;;12.93;8.50;;;14.20;99.50;;;;;;5122004;27;20876;-80
2022/06/13 04:21:18;;;;;;;14.03;7.80;;;14.30;99.60;;;;;;5123043;27;20533;-80
2022/06/13 04:24:03;;;;;;;13.10;7.53;;;14.30;99.60;;;;;;5141275;27;20425;-79
2022/06/13 04:26:41;;;;;;;11.50;8.20;;;14.30;99.60;;;;;;5122241;27;20466;-82
2022/06/13 04:29:19;;;;;;;19.63;8.43;;;14.40;99.70;;;;;;5121756;27;20430;-82
2022/06/13 04:31:49;;;;;;;14.67;8.77;;;14.40;99.70;;;;;;5121751;27;20417;-80
2022/06/13 04:34:22;;;;;;;11.40;8.57;;;14.40;99.70;;;;;;5122069;27;20469;-81
2022/06/13 04:36:52;;;;;;;11.10;7.10;;;14.40;99.70;;;;;;5139722;27;20455;-79
2022/06/13 04:39:25;;;;;;;16.93;8.70;;;14.40;99.80;;;;;;5122262;27;20463;-80
2022/06/13 04:41:56;;;;;;;11.10;7.23;;;14.50;99.90;;;;;;5121294;27;20488;-80
2022/06/13 04:44:26;;;;;;;13.33;7.83;;;14.50;99.90;;;;;;5121651;27;20442;-80
2022/06/13 04:46:56;;;;;;;10.97;8.30;;;14.50;99.90;;;;;;5120597;27;20515;-82
2022/06/13 04:49:30;;;;;;;12.03;8.20;;;14.60;99.90;;;;;;5121283;27;20438;-80
2022/06/13 04:52:02;;;;;;;10.97;8.50;;;14.60;99.90;;;;;;5121093;27;20487;-80
2022/06/13 04:54:36;;;;;;;12.20;7.57;;;14.60;99.90;;;;;;5140101;27;20458;-80
2022/06/13 04:57:05;;;;;;;15.20;8.20;;;14.70;99.90;;;;;;5139905;27;20944;-81
2022/06/13 04:59:34;;;;;;;12.00;7.87;;;14.70;99.90;;;;;;5120618;27;20515;-81
2022/06/13 05:02:03;;;;;;;12.63;6.90;;;14.70;99.90;;;;;;5120962;27;20446;-81
2022/06/13 05:04:34;;;;;;;12.10;8.80;;;14.70;99.90;;;;;;5120999;27;20470;-80
2022/06/13 05:07:10;;;;;;;14.27;8.00;;;14.80;99.90;;;;;;5120895;27;20466;-79
2022/06/13 05:09:43;;;;;;;14.50;8.43;;;14.80;99.90;;;;;;5124252;27;20430;-82
2022/06/13 05:12:16;;;;;;;12.37;8.40;;;14.80;99.90;;;;;;5125177;27;20431;-82
2022/06/13 05:14:50;;;;;;;16.40;7.90;;;14.80;99.90;;;;;;5125361;27;20519;-83
2022/06/13 05:17:51;;;;;;;11.23;7.63;;;14.80;99.90;;;;;;5122711;27;20955;-82
2022/06/13 05:20:25;;;;;;;9.27;7.50;;;14.80;99.90;;;;;;5120826;27;20562;-82
2022/06/13 05:23:13;;;;;;;11.83;7.77;;;14.90;99.90;;;;;;5120576;27;20434;-80
2022/06/13 05:25:45;;;;;;;13.43;8.10;;;14.90;99.90;;;;;;5139128;27;20494;-81
2022/06/13 05:28:18;;;;;;;16.33;9.30;;;14.90;99.90;;;;;;5120778;27;20473;-79
2022/06/13 05:30:49;;;;;;;9.90;8.37;;;14.90;99.90;;;;;;5121001;27;20461;-81
2022/06/13 05:33:19;;;;;;;14.33;8.50;;;15.00;99.90;;;;;;5119982;27;20445;-78
2022/06/13 05:35:52;;;;;;;16.87;8.47;;;15.00;99.90;;;;;;5120253;27;20441;-80
2022/06/13 05:38:36;;;;;;;11.27;6.90;;;15.00;99.90;;;;;;5120542;27;20965;-81
2022/06/13 05:41:06;;;;;;;9.40;8.40;;;15.10;99.90;;;;;;5140045;27;20826;-81
2022/06/13 05:43:35;;;;;;;12.77;8.90;;;15.10;99.90;;;;;;5120006;27;20432;-81
2022/06/13 05:46:05;;;;;;;13.20;7.93;;;15.10;99.90;;;;;;5119704;27;20444;-79
2022/06/13 05:48:34;;;;;;;11.10;8.07;;;15.20;99.90;;;;;;5120376;28;20531;-79
2022/06/13 05:51:02;;;;;;;9.93;7.60;;;15.20;99.90;;;;;;5121522;27;20417;-80
2022/06/13 05:53:30;;;;;;;14.50;8.20;;;15.20;99.90;;;;;;5142501;27;20472;-79
2022/06/13 05:56:01;;;;;;;11.00;8.20;;;15.30;99.90;;;;;;5121098;27;20474;-80
2022/06/13 05:58:30;;;;;;;10.23;8.50;;;15.30;99.90;;;;;;5121152;27;20454;-79
2022/06/13 06:01:01;;;;;;;13.27;7.80;;;15.40;99.90;;;;;;5121684;27;20576;-79
2022/06/13 06:03:30;;;;;;;17.20;8.90;;;15.40;99.90;;;;;;5140081;27;20463;-80
2022/06/13 06:06:01;;;;;;;14.10;8.83;;;15.50;99.90;;;;;;5121784;27;20455;-80
2022/06/13 06:08:31;;;;;;;8.80;7.33;;;15.50;99.90;;;;;;5120319;27;20936;-80
2022/06/13 06:11:00;;;;;;;12.57;7.93;;;15.60;99.90;;;;;;5120111;28;20520;-80
2022/06/13 06:13:31;;;;;;;10.70;7.63;;;15.70;99.90;;;;;;5139181;28;20408;-79
2022/06/13 06:16:01;;;;;;;12.90;9.07;;;15.90;99.90;;;;;;5137412;28;20450;-80
2022/06/13 06:18:30;;;;;;;11.20;7.83;;;16.00;99.90;;;;;;5119444;28;20910;-79
2022/06/13 06:20:59;;;;;;;14.90;7.00;;;16.10;99.90;;;;;;5132174;28;20448;-81
2022/06/13 06:23:27;;;;;;;9.70;7.10;;;16.20;99.90;;;;;;5131789;28;20835;-81
2022/06/13 06:25:56;;;;;;;12.57;7.07;;;16.30;99.90;;;;;;5150020;28;20514;-79
2022/06/13 06:28:25;;;;;;;10.97;7.30;;;16.30;99.90;;;;;;5142548;28;20451;-81
2022/06/13 06:30:57;;;;;;;9.37;7.30;;;16.40;99.90;;;;;;5122493;28;20538;-81
2022/06/13 06:33:27;;;;;;;9.93;6.70;;;16.50;99.90;;;;;;5119763;28;20467;-81
2022/06/13 06:35:56;;;;;;;13.23;7.00;;;16.80;99.90;;;;;;5118962;28;20535;-81
2022/06/13 06:38:26;;;;;;;11.80;6.63;;;17.00;99.90;;;;;;5119441;28;20839;-80
2022/06/13 06:40:54;;;;;;;11.17;6.90;;;17.30;99.90;;;;;;5137596;28;20505;-81
2022/06/13 06:43:23;;;;;;;11.47;6.50;;;17.60;99.90;;;;;;5118967;28;20529;-82
2022/06/13 06:45:52;;;;;;;11.50;5.33;;;17.80;99.90;;;;;;5118586;28;20908;-82
2022/06/13 06:48:23;;;;;;;13.30;5.90;;;18.00;99.60;;;;;;5119037;28;20432;-82
2022/06/13 06:50:52;;;;;;;8.50;4.60;;;18.20;99.40;;;;;;5118761;28;20553;-80
2022/06/13 06:53:24;;;;;;;7.60;5.60;;;18.40;99.20;;;;;;5118043;28;20474;-81
2022/06/13 07:01:28;;;;;;;9.03;4.50;;;18.40;98.20;;;;;;5119896;27;20476;-80
2022/06/13 07:03:58;;;;;;;5.10;3.97;;;18.50;98.00;;;;;;5140143;27;20414;-81
2022/06/13 07:06:26;;;;;;;8.13;4.37;;;18.60;97.90;;;;;;5121811;27;20443;-81
2022/06/13 07:08:55;;;;;;;10.87;4.33;;;18.70;97.70;;;;;;5140188;27;20447;-79
2022/06/13 07:14:12;;;;;;;7.40;4.50;;;18.80;97.10;;;;;;5121868;27;20446;-79
2022/06/13 07:16:40;;;;;;;6.97;3.63;;;18.60;96.90;;;;;;5121981;27;20488;-81
2022/06/13 07:19:10;;;;;;;3.90;1.27;;;18.40;96.50;;;;;;5122706;27;20533;-80
2022/06/13 07:21:38;;;;;;;4.23;1.23;;;18.20;95.90;;;;;;5122462;27;20492;-80
2022/06/13 07:24:07;;;;;;;3.33;1.30;;;17.90;95.40;;;;;;5122260;27;20449;-82
2022/06/13 07:26:35;;;;;;;2.07;1.20;;;17.50;95.10;;;;;;5123893;27;20641;-81
2022/06/13 07:29:03;;;;;;;2.00;1.20;;;17.30;95.00;;;;;;5123111;27;20533;-81
2022/06/13 07:31:35;;;;;;;2.40;1.10;;;17.10;94.90;;;;;;5122939;27;20761;-81
2022/06/13 07:34:04;;;;;;;1.83;0.80;;;16.90;94.60;;;;;;5124723;27;20821;-81
2022/06/13 07:36:33;;;;;;;3.43;0.80;;;16.70;94.60;;;;;;5124580;27;20470;-82
2022/06/13 07:39:02;;;;;;;2.57;1.30;;;16.70;94.60;;;;;;5144460;27;20462;-81
2022/06/13 07:41:30;;;;;;;1.70;0.87;;;16.60;94.30;;;;;;5123654;27;20499;-80
2022/06/13 07:43:59;;;;;;;2.10;1.10;;;16.50;94.40;;;;;;5121771;27;20869;-80
2022/06/13 07:46:30;;;;;;;3.07;1.17;;;16.40;94.40;;;;;;5121678;27;20470;-81
2022/06/13 07:48:59;;;;;;;1.40;1.07;;;16.40;94.40;;;;;;5122073;27;20843;-79
2022/06/13 07:51:28;;;;;;;1.60;1.10;;;16.40;94.50;;;;;;5121716;27;20451;-81
2022/06/13 07:53:58;;;;;;;3.53;1.30;;;16.70;94.70;;;;;;5121650;27;20452;-80
2022/06/13 07:56:30;;;;;;;2.43;1.47;;;16.90;94.70;;;;;;5123102;27;20994;-82
2022/06/13 07:58:59;;;;;;;3.37;1.80;;;17.20;94.70;;;;;;5121877;27;20500;-80
2022/06/13 08:01:28;;;;;;;6.23;1.90;;;17.40;94.60;;;;;;5121660;27;20471;-80
2022/06/13 08:03:57;;;;;;;2.30;1.20;;;17.60;94.60;;;;;;5140162;27;20441;-81
2022/06/13 08:06:27;;;;;;;2.07;1.40;;;17.90;94.60;;;;;;5122238;27;20470;-79
2022/06/13 08:08:57;;;;;;;3.33;1.33;;;18.00;94.50;;;;;;5121673;27;20551;-80
2022/06/13 08:11:30;;;;;;;2.47;1.77;;;18.20;94.40;;;;;;5121516;27;20526;-80
2022/06/13 08:13:58;;;;;;;2.00;1.30;;;18.30;94.40;;;;;;5121714;27;20499;-80
2022/06/13 08:16:27;;;;;;;2.27;1.20;;;18.40;94.30;;;;;;5140039;27;20507;-80
2022/06/13 08:18:56;;;;;;;4.03;1.70;;;18.50;94.50;;;;;;5121308;27;20446;-83
2022/06/13 08:21:24;;;;;;;4.70;1.70;;;18.60;94.40;;;;;;5121255;27;20496;-80
2022/06/13 08:23:53;;;;;;;2.73;1.43;;;18.60;94.30;;;;;;5139575;27;20996;-81
2022/06/13 08:26:23;;;;;;;2.83;1.80;;;18.70;94.30;;;;;;5121204;27;20466;-81
2022/06/13 08:28:51;;;;;;;2.83;1.67;;;18.80;94.20;;;;;;5120523;27;20462;-81
2022/06/13 08:31:21;;;;;;;3.83;1.93;;;19.00;94.10;;;;;;5120426;27;20446;-81
2022/06/13 08:33:50;;;;;;;2.80;1.77;;;19.10;94.00;;;;;;5139468;27;20902;-80
2022/06/13 08:36:19;;;;;;;3.63;1.73;;;19.10;93.90;;;;;;5138883;27;20486;-80
2022/06/13 08:38:48;;;;;;;2.93;1.60;;;19.30;93.80;;;;;;5120085;27;20552;-82
2022/06/13 08:41:32;;;;;;;3.97;1.90;;;19.30;93.60;;;;;;5138151;27;20474;-80
2022/06/13 08:44:20;;;;;;;1.67;1.07;;;19.40;93.30;;;;;;5119937;27;20446;-81
2022/06/13 08:47:06;;;;;;;3.77;1.27;;;19.50;93.20;;;;;;5120100;27;20839;-80
2022/06/13 08:49:42;;;;;;;2.30;1.50;;;19.60;93.30;;;;;;5120335;27;20442;-80
2022/06/13 08:52:29;;;;;;;3.20;1.23;;;19.70;93.20;;;;;;5119773;27;20439;-78
2022/06/13 08:55:09;;;;;;;2.87;1.20;;;19.80;93.00;;;;;;5119879;27;20446;-82
2022/06/13 08:57:46;;;;;;;4.30;1.67;;;19.90;92.70;;;;;;5119584;27;20525;-81
2022/06/13 09:00:19;;;;;;;2.27;1.07;;;20.00;92.70;;;;;;5122700;27;20446;-81
2022/06/13 09:02:55;;;;;;;1.70;1.03;;;20.00;92.40;;;;;;5138162;27;20534;-81
2022/06/13 09:05:28;;;;;;;2.33;0.80;;;20.00;91.90;;;;;;5120396;27;20553;-81
2022/06/13 09:08:05;;;;;;;2.57;1.10;;;20.00;91.60;;;;;;5119324;27;20859;-81
2022/06/13 09:10:41;;;;;;;2.37;1.20;;;20.10;91.50;;;;;;5138458;27;20411;-79
2022/06/13 09:13:18;;;;;;;2.70;1.23;;;20.00;91.30;;;;;;5118572;27;20924;-81
2022/06/13 09:15:51;;;;;;;2.63;1.00;;;20.10;91.10;;;;;;5118984;27;21009;-80
2022/06/13 09:18:23;;;;;;;1.63;1.20;;;20.10;91.10;;;;;;5119313;27;20443;-79
2022/06/13 09:20:57;;;;;;;2.63;1.27;;;20.00;91.20;;;;;;5119257;27;20441;-81
2022/06/13 09:23:36;;;;;;;2.73;1.27;;;20.00;91.30;;;;;;5138745;27;20447;-81
2022/06/13 09:26:18;;;;;;;2.87;1.23;;;19.80;91.60;;;;;;5120854;27;20468;-83
2022/06/13 09:29:00;;;;;;;2.30;1.30;;;19.80;91.90;;;;;;5121688;27;20541;-81
2022/06/13 09:31:37;;;;;;;2.90;1.77;;;19.70;92.10;;;;;;5129257;27;20471;-83
2022/06/13 09:34:12;;;;;;;2.00;1.03;;;19.60;92.10;;;;;;5129120;27;20465;-82
2022/06/13 09:36:47;;;;;;;2.37;1.20;;;19.60;92.10;;;;;;5128931;27;20458;-81
2022/06/13 09:39:18;;;;;;;1.20;0.70;;;19.70;92.20;;;;;;5126841;27;20487;-81
2022/06/13 09:42:01;;;;;;;2.03;1.20;;;19.80;92.10;;;;;;5120488;27;20470;-82
2022/06/13 09:44:41;;;;;;;1.67;0.73;;;20.00;91.70;;;;;;5119815;27;20448;-81
2022/06/13 09:47:17;;;;;;;3.43;1.33;;;20.10;91.30;;;;;;5119511;27;20443;-81
2022/06/13 09:49:56;;;;;;;1.80;0.80;;;20.10;90.90;;;;;;5120511;27;20851;-80
2022/06/13 09:52:39;;;;;;;4.03;1.47;;;20.00;90.40;;;;;;5122763;27;20434;-80
2022/06/13 09:55:19;;;;;;;1.93;1.00;;;19.90;89.50;;;;;;5118222;28;20527;-81
2022/06/13 09:57:58;;;;;;;1.20;0.70;;;19.80;88.80;;;;;;5118254;27;20438;-81
2022/06/13 10:00:38;;;;;;;1.93;0.73;;;19.60;88.20;;;;;;5136836;27;20953;-81
2022/06/13 10:03:18;;;;;;;1.53;1.00;;;19.50;87.90;;;;;;5121296;27;20477;-80
2022/06/13 10:05:53;;;;;;;2.07;0.63;;;19.40;88.20;;;;;;5118472;27;20470;-80
2022/06/13 10:08:48;;;;;;;1.50;0.80;;;19.30;88.00;;;;;;5117891;27;20442;-79
2022/06/13 10:11:24;;;;;;;1.80;0.90;;;19.30;88.00;;;;;;5137461;27;20427;-79
2022/06/13 10:14:20;;;;;;;3.67;0.60;;;19.40;88.20;;;;;;5119052;28;20966;-80
2022/06/13 10:17:02;;;;;;;1.90;0.80;;;19.20;88.20;;;;;;5121718;28;20473;-81
2022/06/13 10:19:38;;;;;;;3.00;0.80;;;19.00;87.50;;;;;;5141224;28;20784;-82
2022/06/13 10:22:14;;;;;;;1.83;0.70;;;18.80;87.80;;;;;;5123111;28;20514;-82
2022/06/13 10:24:54;;;;;;;1.10;0.60;;;18.60;88.00;;;;;;5138716;28;20406;-80
2022/06/13 10:27:33;;;;;;;1.53;0.80;;;18.40;87.90;;;;;;5121213;28;20446;-82
2022/06/13 10:30:14;;;;;;;2.20;0.90;;;18.20;88.10;;;;;;5139619;28;20423;-82
2022/06/13 10:32:57;;;;;;;1.70;0.97;;;18.10;88.90;;;;;;5119797;28;20942;-82
2022/06/13 10:35:37;;;;;;;3.70;0.97;;;18.00;88.70;;;;;;5120683;27;20472;-81
2022/06/13 10:38:18;;;;;;;2.80;1.13;;;18.10;89.20;;;;;;5123901;27;20803;-80
2022/06/13 10:40:47;;;;;;;1.83;0.87;;;18.30;89.70;;;;;;5125049;27;20499;-82
2022/06/13 10:43:16;;;;;;;1.57;0.80;;;18.50;90.00;;;;;;5123288;27;20895;-82
2022/06/13 10:45:45;;;;;;;4.17;1.33;;;18.60;90.10;;;;;;5141818;27;20462;-80
2022/06/13 10:48:20;;;;;;;2.97;1.20;;;18.80;90.00;;;;;;5141391;27;20441;-82
2022/06/13 10:50:53;;;;;;;1.67;1.20;;;18.90;89.80;;;;;;5124285;27;20808;-79
2022/06/13 10:53:25;;;;;;;3.00;0.90;;;19.00;89.70;;;;;;5123347;27;20440;-81
2022/06/13 10:55:58;;;;;;;3.40;1.10;;;19.20;89.70;;;;;;5122644;27;20462;-82
2022/06/13 10:58:34;;;;;;;2.13;1.33;;;19.30;89.60;;;;;;5141816;27;20431;-80
2022/06/13 11:01:12;;;;;;;2.43;1.00;;;19.50;89.70;;;;;;5141379;27;20464;-81
2022/06/13 11:03:58;;;;;;;1.50;0.87;;;19.50;89.60;;;;;;5123109;27;20489;-81
2022/06/13 11:06:42;;;;;;;1.03;0.67;;;19.50;89.40;;;;;;5141471;27;20458;-80
2022/06/13 11:09:23;;;;;;;3.80;1.30;;;19.40;89.50;;;;;;5122161;27;20438;-79
2022/06/13 11:11:56;;;;;;;2.60;1.10;;;19.30;89.10;;;;;;5121696;27;20553;-82
2022/06/13 11:14:32;;;;;;;4.10;1.20;;;19.40;89.10;;;;;;5122236;27;20463;-82
2022/06/13 11:22:41;;;;;;;2.10;1.20;;;19.90;89.40;;;;;;5105051;27;20462;-81
2022/06/13 11:25:21;;;;;;;2.63;1.30;;;20.00;89.50;;;;;;5142006;27;20518;-82
2022/06/13 11:28:02;;;;;;;4.60;1.20;;;20.10;89.30;;;;;;5123373;27;20472;-81
2022/06/13 11:30:40;;;;;;;2.70;1.00;;;20.00;88.80;;;;;;5123962;27;20484;-82
2022/06/13 11:33:26;;;;;;;1.67;0.70;;;19.90;88.90;;;;;;5122033;27;20446;-80
2022/06/13 11:35:59;;;;;;;4.93;1.30;;;19.80;88.80;;;;;;5141034;27;20566;-81
2022/06/13 11:38:30;;;;;;;2.20;1.13;;;19.80;88.90;;;;;;5122985;27;20438;-83
2022/06/13 11:41:10;;;;;;;1.53;1.00;;;19.80;88.80;;;;;;5122897;27;20482;-82
2022/06/13 11:43:45;;;;;;;2.63;1.30;;;19.80;88.70;;;;;;5122095;27;20566;-81
2022/06/13 11:46:35;;;;;;;3.00;1.10;;;19.90;88.50;;;;;;5123102;27;20515;-83
2022/06/13 11:49:20;;;;;;;2.47;1.00;;;20.10;88.20;;;;;;5140542;27;20491;-82
2022/06/13 11:51:55;;;;;;;2.17;0.90;;;20.20;87.60;;;;;;5124192;27;20438;-82
2022/06/13 11:54:32;;;;;;;2.43;1.30;;;20.20;86.40;;;;;;5123545;27;20810;-83
2022/06/13 11:57:29;;;;;;;2.20;1.00;;;20.20;86.50;;;;;;5123210;27;20485;-81
2022/06/13 12:00:00;;;;;;;2.83;1.00;;;20.30;86.00;;;;;;5123039;27;20468;-81
2022/06/13 12:02:55;;;;;;;2.70;0.73;;;20.30;85.60;;;;;;5140706;27;20445;-81
2022/06/13 12:05:32;;;;;;;2.00;0.80;;;20.30;84.90;;;;;;5139869;27;20454;-79
2022/06/13 12:08:05;;;;;;;3.00;0.90;;;20.20;85.10;;;;;;5120885;27;20464;-79
2022/06/13 12:10:36;;;;;;;2.73;1.00;;;20.20;85.20;;;;;;5120738;27;20454;-81
2022/06/13 12:13:10;;;;;;;3.20;0.93;;;20.20;85.30;;;;;;5120807;27;20443;-79
2022/06/13 12:15:44;;;;;;;2.10;1.20;;;20.30;85.60;;;;;;5139505;27;20446;-80
2022/06/13 12:18:19;;;;;;;5.73;1.07;;;20.40;85.60;;;;;;5139460;27;20415;-80
2022/06/13 12:20:54;;;;;;;2.33;0.90;;;20.40;85.00;;;;;;5121352;27;20460;-79
2022/06/13 12:23:31;;;;;;;3.30;1.10;;;20.30;84.60;;;;;;5139696;27;20450;-81
2022/06/13 12:26:06;;;;;;;1.87;0.80;;;20.10;83.80;;;;;;5121377;27;20470;-82
2022/06/13 12:28:47;;;;;;;3.00;0.97;;;20.00;83.80;;;;;;5139700;27;20461;-82
2022/06/13 12:31:22;;;;;;;2.20;0.73;;;19.90;83.80;;;;;;5120677;27;20487;-81
2022/06/13 12:34:00;;;;;;;2.50;0.80;;;19.80;84.40;;;;;;5120445;27;20438;-80
2022/06/13 12:36:46;;;;;;;1.50;0.70;;;19.80;84.70;;;;;;5120723;27;20457;-81
2022/06/13 12:39:29;;;;;;;2.20;1.03;;;19.70;85.10;;;;;;5121328;27;20446;-80
2022/06/13 12:42:06;;;;;;;2.27;0.80;;;19.60;85.00;;;;;;5121027;27;20470;-81
2022/06/13 12:44:50;;;;;;;1.93;1.00;;;19.50;84.40;;;;;;5121490;27;20531;-81
2022/06/13 12:47:36;;;;;;;2.30;1.03;;;19.40;84.30;;;;;;5120736;27;20442;-81
2022/06/13 12:50:23;;;;;;;3.13;1.30;;;19.30;84.50;;;;;;5120117;27;20438;-83
2022/06/13 12:53:11;;;;;;;2.33;1.30;;;19.30;84.60;;;;;;5138330;27;20420;-80
2022/06/13 12:55:50;;;;;;;2.57;1.20;;;19.30;84.60;;;;;;5120435;27;20527;-81
2022/06/13 12:58:40;;;;;;;2.50;1.00;;;19.30;84.60;;;;;;5119354;27;20434;-80
2022/06/13 13:01:13;;;;;;;3.10;1.20;;;19.30;84.90;;;;;;5119071;27;20462;-79
2022/06/13 13:04:09;;;;;;;2.03;1.10;;;19.40;85.30;;;;;;5118181;27;20482;-81
2022/06/13 13:06:44;;;;;;;3.63;1.50;;;19.50;85.30;;;;;;5137227;27;20866;-80
2022/06/13 13:09:29;;;;;;;4.03;1.20;;;19.60;85.30;;;;;;5137530;27;20490;-82
2022/06/13 13:12:19;;;;;;;3.50;1.43;;;19.70;85.20;;;;;;5119363;27;20950;-83
2022/06/13 13:14:55;;;;;;;2.57;0.90;;;19.80;85.30;;;;;;5118664;27;20457;-79
2022/06/13 13:17:33;;;;;;;2.67;1.20;;;19.80;85.60;;;;;;5120087;27;20826;-81
2022/06/13 13:20:08;;;;;;;4.77;1.40;;;20.00;86.10;;;;;;5119430;27;20502;-80
2022/06/13 13:22:43;;;;;;;3.83;1.40;;;20.10;85.60;;;;;;5119473;27;20954;-81
2022/06/13 13:25:37;;;;;;;2.20;1.20;;;20.10;85.30;;;;;;5119395;27;20832;-80
2022/06/13 13:28:17;;;;;;;3.10;1.60;;;20.10;84.90;;;;;;5120000;27;20442;-80
2022/06/13 13:30:55;;;;;;;3.80;1.60;;;20.10;84.80;;;;;;5138422;27;20441;-80
2022/06/13 13:33:51;;;;;;;5.20;1.57;;;20.10;85.10;;;;;;5118859;27;20427;-80
2022/06/13 13:36:28;;;;;;;1.93;0.90;;;20.10;85.10;;;;;;5137421;27;20985;-81
2022/06/13 13:39:01;;;;;;;2.43;1.20;;;20.10;85.40;;;;;;5119972;27;20449;-83